sensor_id;sensor_type;location;lat;lon;timestamp;P1;durP1;ratioP1;P2;durP2;ratioP2
29380;SDS011;16364;52.490;13.326;2023-10-31T00:01:43;5.30;;;4.73;;
29380;SDS011;16364;52.490;13.326;2023-10-31T00:04:08;6.20;;;3.77;;
29380;SDS011;16364;52.490;13.326;2023-10-31T00:06:33;4.27;;;3.87;;
29380;SDS011;16364;52.490;13.326;2023-10-31T00:08:58;5.60;;;3.50;;
29380;SDS011;16364;52.490;13.326;2023-10-31T00:11:23;4.20;;;3.60;;
29380;SDS011;16364;52.490;13.326;2023-10-31T00:13:49;4.07;;;3.70;;
29380;SDS011;16364;52.490;13.326;2023-10-31T00:16:14;4.60;;;3.43;;
29380;SDS011;16364;52.490;13.326;2023-10-31T00:18:39;3.77;;;3.47;;
29380;SDS011;16364;52.490;13.326;2023-10-31T00:21:05;4.53;;;4.10;;
29380;SDS011;16364;52.490;13.326;2023-10-31T00:23:30;6.87;;;3.47;;
29380;SDS011;16364;52.490;13.326;2023-10-31T00:25:56;4.70;;;3.70;;
29380;SDS011;16364;52.490;13.326;2023-10-31T00:28:21;4.43;;;3.77;;
29380;SDS011;16364;52.490;13.326;2023-10-31T00:30:46;3.87;;;3.20;;
29380;SDS011;16364;52.490;13.326;2023-10-31T00:33:11;5.10;;;3.90;;
29380;SDS011;16364;52.490;13.326;2023-10-31T00:35:37;3.80;;;3.37;;
29380;SDS011;16364;52.490;13.326;2023-10-31T00:38:02;3.90;;;3.43;;
29380;SDS011;16364;52.490;13.326;2023-10-31T00:40:28;3.90;;;3.17;;
29380;SDS011;16364;52.490;13.326;2023-10-31T00:42:53;4.50;;;3.20;;
29380;SDS011;16364;52.490;13.326;2023-10-31T00:45:19;3.50;;;3.17;;
29380;SDS011;16364;52.490;13.326;2023-10-31T00:47:44;8.13;;;3.53;;
29380;SDS011;16364;52.490;13.326;2023-10-31T00:50:09;4.70;;;3.80;;
29380;SDS011;16364;52.490;13.326;2023-10-31T00:52:34;4.43;;;4.03;;
29380;SDS011;16364;52.490;13.326;2023-10-31T00:55:00;3.40;;;3.10;;
29380;SDS011;16364;52.490;13.326;2023-10-31T00:57:25;7.03;;;3.83;;
29380;SDS011;16364;52.490;13.326;2023-10-31T00:59:50;4.07;;;3.67;;
29380;SDS011;16364;52.490;13.326;2023-10-31T01:02:15;3.30;;;3.00;;
29380;SDS011;16364;52.490;13.326;2023-10-31T01:04:41;3.80;;;3.50;;
29380;SDS011;16364;52.490;13.326;2023-10-31T01:07:06;4.10;;;3.70;;
29380;SDS011;16364;52.490;13.326;2023-10-31T01:09:31;5.00;;;3.87;;
29380;SDS011;16364;52.490;13.326;2023-10-31T01:11:56;5.40;;;3.83;;
29380;SDS011;16364;52.490;13.326;2023-10-31T01:14:21;4.50;;;3.17;;
29380;SDS011;16364;52.490;13.326;2023-10-31T01:16:47;3.63;;;3.33;;
29380;SDS011;16364;52.490;13.326;2023-10-31T01:19:12;4.63;;;3.80;;
29380;SDS011;16364;52.490;13.326;2023-10-31T01:21:37;6.70;;;4.30;;
29380;SDS011;16364;52.490;13.326;2023-10-31T01:24:03;5.50;;;4.33;;
29380;SDS011;16364;52.490;13.326;2023-10-31T01:26:28;4.67;;;4.00;;
29380;SDS011;16364;52.490;13.326;2023-10-31T01:28:53;4.63;;;3.63;;
29380;SDS011;16364;52.490;13.326;2023-10-31T01:31:18;5.10;;;3.97;;
29380;SDS011;16364;52.490;13.326;2023-10-31T01:33:44;5.83;;;4.43;;
29380;SDS011;16364;52.490;13.326;2023-10-31T01:36:10;7.73;;;4.23;;
29380;SDS011;16364;52.490;13.326;2023-10-31T01:38:37;7.33;;;4.67;;
29380;SDS011;16364;52.490;13.326;2023-10-31T01:41:02;4.87;;;4.13;;
29380;SDS011;16364;52.490;13.326;2023-10-31T01:45:56;5.60;;;3.80;;
29380;SDS011;16364;52.490;13.326;2023-10-31T01:48:21;4.40;;;3.83;;
29380;SDS011;16364;52.490;13.326;2023-10-31T01:50:48;5.27;;;3.93;;
29380;SDS011;16364;52.490;13.326;2023-10-31T01:53:14;6.10;;;4.80;;
29380;SDS011;16364;52.490;13.326;2023-10-31T01:55:39;5.33;;;4.03;;
29380;SDS011;16364;52.490;13.326;2023-10-31T01:58:04;4.23;;;3.83;;
29380;SDS011;16364;52.490;13.326;2023-10-31T02:00:30;4.63;;;4.00;;
29380;SDS011;16364;52.490;13.326;2023-10-31T02:02:55;5.20;;;4.60;;
29380;SDS011;16364;52.490;13.326;2023-10-31T02:05:21;6.00;;;4.27;;
29380;SDS011;16364;52.490;13.326;2023-10-31T02:07:47;5.07;;;4.67;;
29380;SDS011;16364;52.490;13.326;2023-10-31T02:10:12;5.57;;;4.67;;
29380;SDS011;16364;52.490;13.326;2023-10-31T02:12:37;4.63;;;4.23;;
29380;SDS011;16364;52.490;13.326;2023-10-31T02:15:03;5.37;;;4.23;;
29380;SDS011;16364;52.490;13.326;2023-10-31T02:17:29;6.90;;;4.43;;
29380;SDS011;16364;52.490;13.326;2023-10-31T02:19:54;4.63;;;4.23;;
29380;SDS011;16364;52.490;13.326;2023-10-31T02:22:20;5.33;;;4.67;;
29380;SDS011;16364;52.490;13.326;2023-10-31T02:24:45;6.90;;;4.50;;
29380;SDS011;16364;52.490;13.326;2023-10-31T02:27:10;5.30;;;4.77;;
29380;SDS011;16364;52.490;13.326;2023-10-31T02:29:35;8.70;;;6.77;;
29380;SDS011;16364;52.490;13.326;2023-10-31T02:32:01;7.73;;;6.90;;
29380;SDS011;16364;52.490;13.326;2023-10-31T02:34:26;7.83;;;4.50;;
29380;SDS011;16364;52.490;13.326;2023-10-31T02:36:51;9.53;;;4.47;;
29380;SDS011;16364;52.490;13.326;2023-10-31T02:39:16;7.90;;;5.37;;
29380;SDS011;16364;52.490;13.326;2023-10-31T02:41:42;7.23;;;5.53;;
29380;SDS011;16364;52.490;13.326;2023-10-31T02:44:07;7.80;;;5.80;;
29380;SDS011;16364;52.490;13.326;2023-10-31T02:46:33;5.33;;;4.90;;
29380;SDS011;16364;52.490;13.326;2023-10-31T02:49:02;5.40;;;4.90;;
29380;SDS011;16364;52.490;13.326;2023-10-31T02:51:27;5.40;;;5.00;;
29380;SDS011;16364;52.490;13.326;2023-10-31T02:53:52;6.03;;;4.03;;
29380;SDS011;16364;52.490;13.326;2023-10-31T02:56:18;8.77;;;5.83;;
29380;SDS011;16364;52.490;13.326;2023-10-31T02:58:44;9.13;;;4.73;;
29380;SDS011;16364;52.490;13.326;2023-10-31T03:01:09;5.47;;;4.63;;
29380;SDS011;16364;52.490;13.326;2023-10-31T03:03:34;4.33;;;4.00;;
29380;SDS011;16364;52.490;13.326;2023-10-31T03:05:59;7.57;;;6.03;;
29380;SDS011;16364;52.490;13.326;2023-10-31T03:08:25;5.23;;;4.83;;
29380;SDS011;16364;52.490;13.326;2023-10-31T03:10:50;6.33;;;5.13;;
29380;SDS011;16364;52.490;13.326;2023-10-31T03:13:16;8.03;;;4.67;;
29380;SDS011;16364;52.490;13.326;2023-10-31T03:15:41;8.47;;;5.70;;
29380;SDS011;16364;52.490;13.326;2023-10-31T03:18:06;6.63;;;5.47;;
29380;SDS011;16364;52.490;13.326;2023-10-31T03:20:32;5.10;;;4.70;;
29380;SDS011;16364;52.490;13.326;2023-10-31T03:22:57;5.03;;;4.63;;
29380;SDS011;16364;52.490;13.326;2023-10-31T03:25:22;4.90;;;4.50;;
29380;SDS011;16364;52.490;13.326;2023-10-31T03:27:47;5.60;;;5.13;;
29380;SDS011;16364;52.490;13.326;2023-10-31T03:30:13;5.00;;;4.50;;
29380;SDS011;16364;52.490;13.326;2023-10-31T03:32:38;6.13;;;5.63;;
29380;SDS011;16364;52.490;13.326;2023-10-31T03:35:03;6.53;;;5.93;;
29380;SDS011;16364;52.490;13.326;2023-10-31T03:37:30;5.90;;;5.37;;
29380;SDS011;16364;52.490;13.326;2023-10-31T03:39:55;5.37;;;4.73;;
29380;SDS011;16364;52.490;13.326;2023-10-31T03:42:20;6.17;;;5.57;;
29380;SDS011;16364;52.490;13.326;2023-10-31T03:44:45;5.77;;;5.23;;
29380;SDS011;16364;52.490;13.326;2023-10-31T03:47:11;5.60;;;4.97;;
29380;SDS011;16364;52.490;13.326;2023-10-31T03:49:39;6.40;;;5.80;;
29380;SDS011;16364;52.490;13.326;2023-10-31T03:52:04;5.73;;;5.00;;
29380;SDS011;16364;52.490;13.326;2023-10-31T03:54:30;7.00;;;5.13;;
29380;SDS011;16364;52.490;13.326;2023-10-31T03:56:55;6.00;;;5.50;;
29380;SDS011;16364;52.490;13.326;2023-10-31T03:59:20;8.03;;;5.37;;
29380;SDS011;16364;52.490;13.326;2023-10-31T04:01:45;6.63;;;5.37;;
29380;SDS011;16364;52.490;13.326;2023-10-31T04:04:11;8.53;;;6.33;;
29380;SDS011;16364;52.490;13.326;2023-10-31T04:06:36;5.40;;;4.90;;
29380;SDS011;16364;52.490;13.326;2023-10-31T04:09:04;9.00;;;5.17;;
29380;SDS011;16364;52.490;13.326;2023-10-31T04:11:30;6.10;;;5.10;;
29380;SDS011;16364;52.490;13.326;2023-10-31T04:13:55;10.23;;;5.77;;
29380;SDS011;16364;52.490;13.326;2023-10-31T04:16:20;5.80;;;5.30;;
29380;SDS011;16364;52.490;13.326;2023-10-31T04:18:45;6.30;;;5.80;;
29380;SDS011;16364;52.490;13.326;2023-10-31T04:21:10;6.70;;;5.70;;
29380;SDS011;16364;52.490;13.326;2023-10-31T04:23:36;7.23;;;6.17;;
29380;SDS011;16364;52.490;13.326;2023-10-31T04:26:01;9.50;;;6.37;;
29380;SDS011;16364;52.490;13.326;2023-10-31T04:28:27;9.03;;;6.17;;
29380;SDS011;16364;52.490;13.326;2023-10-31T04:30:52;7.03;;;6.43;;
29380;SDS011;16364;52.490;13.326;2023-10-31T04:33:17;7.27;;;6.30;;
29380;SDS011;16364;52.490;13.326;2023-10-31T04:35:42;6.90;;;6.23;;
29380;SDS011;16364;52.490;13.326;2023-10-31T04:38:07;8.00;;;7.20;;
29380;SDS011;16364;52.490;13.326;2023-10-31T04:40:33;11.10;;;7.13;;
29380;SDS011;16364;52.490;13.326;2023-10-31T04:42:58;13.80;;;7.77;;
29380;SDS011;16364;52.490;13.326;2023-10-31T04:45:23;8.43;;;7.50;;
29380;SDS011;16364;52.490;13.326;2023-10-31T04:47:48;10.80;;;7.50;;
29380;SDS011;16364;52.490;13.326;2023-10-31T04:50:13;9.10;;;8.20;;
29380;SDS011;16364;52.490;13.326;2023-10-31T04:52:39;10.43;;;8.17;;
29380;SDS011;16364;52.490;13.326;2023-10-31T04:55:04;10.03;;;8.93;;
29380;SDS011;16364;52.490;13.326;2023-10-31T04:57:29;11.17;;;8.30;;
29380;SDS011;16364;52.490;13.326;2023-10-31T04:59:55;11.90;;;8.43;;
29380;SDS011;16364;52.490;13.326;2023-10-31T05:02:22;9.80;;;7.97;;
29380;SDS011;16364;52.490;13.326;2023-10-31T05:04:50;11.13;;;8.67;;
29380;SDS011;16364;52.490;13.326;2023-10-31T05:07:19;8.90;;;8.03;;
29380;SDS011;16364;52.490;13.326;2023-10-31T05:09:44;9.00;;;8.00;;
29380;SDS011;16364;52.490;13.326;2023-10-31T05:12:09;8.60;;;7.73;;
29380;SDS011;16364;52.490;13.326;2023-10-31T05:14:35;11.03;;;9.37;;
29380;SDS011;16364;52.490;13.326;2023-10-31T05:17:00;8.90;;;8.00;;
29380;SDS011;16364;52.490;13.326;2023-10-31T05:19:25;9.83;;;8.80;;
29380;SDS011;16364;52.490;13.326;2023-10-31T05:21:51;10.53;;;9.50;;
29380;SDS011;16364;52.490;13.326;2023-10-31T05:24:16;10.10;;;8.13;;
29380;SDS011;16364;52.490;13.326;2023-10-31T05:26:41;9.47;;;7.43;;
29380;SDS011;16364;52.490;13.326;2023-10-31T05:29:08;10.73;;;7.83;;
29380;SDS011;16364;52.490;13.326;2023-10-31T05:31:33;9.70;;;7.63;;
29380;SDS011;16364;52.490;13.326;2023-10-31T05:33:58;8.83;;;6.90;;
29380;SDS011;16364;52.490;13.326;2023-10-31T05:36:24;8.73;;;7.87;;
29380;SDS011;16364;52.490;13.326;2023-10-31T05:38:50;9.10;;;8.20;;
29380;SDS011;16364;52.490;13.326;2023-10-31T05:41:15;8.53;;;7.77;;
29380;SDS011;16364;52.490;13.326;2023-10-31T05:43:40;9.03;;;8.17;;
29380;SDS011;16364;52.490;13.326;2023-10-31T05:46:06;10.00;;;7.03;;
29380;SDS011;16364;52.490;13.326;2023-10-31T05:48:31;7.80;;;7.00;;
29380;SDS011;16364;52.490;13.326;2023-10-31T05:50:57;8.10;;;7.30;;
29380;SDS011;16364;52.490;13.326;2023-10-31T05:53:22;6.97;;;6.27;;
29380;SDS011;16364;52.490;13.326;2023-10-31T05:55:47;6.80;;;6.00;;
29380;SDS011;16364;52.490;13.326;2023-10-31T05:58:12;6.03;;;5.43;;
29380;SDS011;16364;52.490;13.326;2023-10-31T06:00:38;7.20;;;6.50;;
29380;SDS011;16364;52.490;13.326;2023-10-31T06:03:03;8.00;;;5.93;;
29380;SDS011;16364;52.490;13.326;2023-10-31T06:05:28;6.50;;;5.80;;
29380;SDS011;16364;52.490;13.326;2023-10-31T06:07:53;6.83;;;6.13;;
29380;SDS011;16364;52.490;13.326;2023-10-31T06:10:19;6.47;;;5.87;;
29380;SDS011;16364;52.490;13.326;2023-10-31T06:12:46;7.80;;;7.10;;
29380;SDS011;16364;52.490;13.326;2023-10-31T06:15:11;7.30;;;6.20;;
29380;SDS011;16364;52.490;13.326;2023-10-31T06:17:37;10.73;;;7.30;;
29380;SDS011;16364;52.490;13.326;2023-10-31T06:20:02;7.87;;;6.60;;
29380;SDS011;16364;52.490;13.326;2023-10-31T06:22:27;9.90;;;7.30;;
29380;SDS011;16364;52.490;13.326;2023-10-31T06:24:53;6.50;;;5.90;;
29380;SDS011;16364;52.490;13.326;2023-10-31T06:27:18;6.90;;;6.07;;
29380;SDS011;16364;52.490;13.326;2023-10-31T06:29:43;7.47;;;6.77;;
29380;SDS011;16364;52.490;13.326;2023-10-31T06:32:09;9.30;;;6.97;;
29380;SDS011;16364;52.490;13.326;2023-10-31T06:34:34;9.63;;;6.57;;
29380;SDS011;16364;52.490;13.326;2023-10-31T06:36:59;6.50;;;5.67;;
29380;SDS011;16364;52.490;13.326;2023-10-31T06:39:24;8.23;;;5.67;;
29380;SDS011;16364;52.490;13.326;2023-10-31T06:41:49;6.43;;;5.67;;
29380;SDS011;16364;52.490;13.326;2023-10-31T06:44:15;5.50;;;5.10;;
29380;SDS011;16364;52.490;13.326;2023-10-31T06:46:40;6.57;;;4.73;;
29380;SDS011;16364;52.490;13.326;2023-10-31T06:49:05;5.47;;;5.00;;
29380;SDS011;16364;52.490;13.326;2023-10-31T06:51:30;5.17;;;4.77;;
29380;SDS011;16364;52.490;13.326;2023-10-31T06:53:56;4.40;;;4.03;;
29380;SDS011;16364;52.490;13.326;2023-10-31T06:56:21;5.37;;;4.90;;
29380;SDS011;16364;52.490;13.326;2023-10-31T06:58:46;4.97;;;4.20;;
29380;SDS011;16364;52.490;13.326;2023-10-31T07:01:11;4.37;;;4.07;;
29380;SDS011;16364;52.490;13.326;2023-10-31T07:03:38;6.33;;;4.20;;
29380;SDS011;16364;52.490;13.326;2023-10-31T07:06:04;3.47;;;3.07;;
29380;SDS011;16364;52.490;13.326;2023-10-31T07:08:29;3.70;;;3.30;;
29380;SDS011;16364;52.490;13.326;2023-10-31T07:10:54;4.00;;;3.50;;
29380;SDS011;16364;52.490;13.326;2023-10-31T07:13:20;4.03;;;3.40;;
29380;SDS011;16364;52.490;13.326;2023-10-31T07:15:45;3.80;;;3.50;;
29380;SDS011;16364;52.490;13.326;2023-10-31T07:18:11;3.40;;;3.17;;
29380;SDS011;16364;52.490;13.326;2023-10-31T07:20:36;3.60;;;3.40;;
29380;SDS011;16364;52.490;13.326;2023-10-31T07:23:02;2.33;;;2.13;;
29380;SDS011;16364;52.490;13.326;2023-10-31T07:25:27;2.77;;;2.00;;
29380;SDS011;16364;52.490;13.326;2023-10-31T07:27:52;2.37;;;1.90;;
29380;SDS011;16364;52.490;13.326;2023-10-31T07:30:18;2.43;;;1.60;;
29380;SDS011;16364;52.490;13.326;2023-10-31T07:32:43;2.17;;;1.97;;
29380;SDS011;16364;52.490;13.326;2023-10-31T07:35:08;2.83;;;2.00;;
29380;SDS011;16364;52.490;13.326;2023-10-31T07:37:33;2.97;;;2.67;;
29380;SDS011;16364;52.490;13.326;2023-10-31T07:39:59;2.20;;;2.00;;
29380;SDS011;16364;52.490;13.326;2023-10-31T07:42:24;3.40;;;1.90;;
29380;SDS011;16364;52.490;13.326;2023-10-31T07:44:49;3.10;;;2.90;;
29380;SDS011;16364;52.490;13.326;2023-10-31T07:47:15;2.10;;;1.90;;
29380;SDS011;16364;52.490;13.326;2023-10-31T07:49:40;2.13;;;2.03;;
29380;SDS011;16364;52.490;13.326;2023-10-31T07:52:06;2.40;;;2.20;;
29380;SDS011;16364;52.490;13.326;2023-10-31T07:54:31;2.87;;;1.80;;
29380;SDS011;16364;52.490;13.326;2023-10-31T07:56:57;1.97;;;1.77;;
29380;SDS011;16364;52.490;13.326;2023-10-31T07:59:22;2.30;;;1.90;;
29380;SDS011;16364;52.490;13.326;2023-10-31T08:01:47;1.90;;;1.80;;
29380;SDS011;16364;52.490;13.326;2023-10-31T08:04:13;2.27;;;1.40;;
29380;SDS011;16364;52.490;13.326;2023-10-31T08:06:40;1.40;;;1.30;;
29380;SDS011;16364;52.490;13.326;2023-10-31T08:09:05;1.47;;;1.37;;
29380;SDS011;16364;52.490;13.326;2023-10-31T08:11:30;1.37;;;1.27;;
29380;SDS011;16364;52.490;13.326;2023-10-31T08:13:56;4.30;;;1.20;;
29380;SDS011;16364;52.490;13.326;2023-10-31T08:16:21;1.40;;;1.30;;
29380;SDS011;16364;52.490;13.326;2023-10-31T08:18:48;3.83;;;1.40;;
29380;SDS011;16364;52.490;13.326;2023-10-31T08:21:13;1.07;;;0.97;;
29380;SDS011;16364;52.490;13.326;2023-10-31T08:23:38;1.37;;;1.27;;
29380;SDS011;16364;52.490;13.326;2023-10-31T08:26:04;3.13;;;1.50;;
29380;SDS011;16364;52.490;13.326;2023-10-31T08:28:29;1.00;;;1.00;;
29380;SDS011;16364;52.490;13.326;2023-10-31T08:30:55;1.50;;;0.97;;
29380;SDS011;16364;52.490;13.326;2023-10-31T08:33:20;2.30;;;1.00;;
29380;SDS011;16364;52.490;13.326;2023-10-31T08:35:45;0.97;;;0.87;;
29380;SDS011;16364;52.490;13.326;2023-10-31T08:38:12;1.87;;;1.03;;
29380;SDS011;16364;52.490;13.326;2023-10-31T08:40:38;1.03;;;0.97;;
29380;SDS011;16364;52.490;13.326;2023-10-31T08:43:03;1.53;;;0.90;;
29380;SDS011;16364;52.490;13.326;2023-10-31T08:45:34;0.80;;;0.80;;
29380;SDS011;16364;52.490;13.326;2023-10-31T08:47:59;2.20;;;0.80;;
29380;SDS011;16364;52.490;13.326;2023-10-31T08:50:25;2.20;;;0.80;;
29380;SDS011;16364;52.490;13.326;2023-10-31T08:52:50;1.10;;;1.00;;
29380;SDS011;16364;52.490;13.326;2023-10-31T08:55:15;1.47;;;0.90;;
29380;SDS011;16364;52.490;13.326;2023-10-31T08:57:40;0.80;;;0.80;;
29380;SDS011;16364;52.490;13.326;2023-10-31T09:00:06;1.87;;;0.80;;
29380;SDS011;16364;52.490;13.326;2023-10-31T09:02:31;0.70;;;0.70;;
29380;SDS011;16364;52.490;13.326;2023-10-31T09:04:56;0.90;;;0.90;;
29380;SDS011;16364;52.490;13.326;2023-10-31T09:07:22;0.70;;;0.70;;
29380;SDS011;16364;52.490;13.326;2023-10-31T09:09:47;0.80;;;0.80;;
29380;SDS011;16364;52.490;13.326;2023-10-31T09:12:12;1.20;;;0.70;;
29380;SDS011;16364;52.490;13.326;2023-10-31T09:14:38;0.63;;;0.63;;
29380;SDS011;16364;52.490;13.326;2023-10-31T09:17:03;0.70;;;0.63;;
29380;SDS011;16364;52.490;13.326;2023-10-31T09:19:29;1.57;;;0.77;;
29380;SDS011;16364;52.490;13.326;2023-10-31T09:21:54;1.23;;;1.13;;
29380;SDS011;16364;52.490;13.326;2023-10-31T09:24:20;0.70;;;0.70;;
29380;SDS011;16364;52.490;13.326;2023-10-31T09:26:45;1.23;;;0.90;;
29380;SDS011;16364;52.490;13.326;2023-10-31T09:29:11;0.83;;;0.80;;
29380;SDS011;16364;52.490;13.326;2023-10-31T09:31:36;0.80;;;0.80;;
29380;SDS011;16364;52.490;13.326;2023-10-31T09:34:01;0.80;;;0.70;;
29380;SDS011;16364;52.490;13.326;2023-10-31T09:36:28;2.60;;;0.80;;
29380;SDS011;16364;52.490;13.326;2023-10-31T09:38:54;1.23;;;1.00;;
29380;SDS011;16364;52.490;13.326;2023-10-31T09:41:19;1.03;;;0.93;;
29380;SDS011;16364;52.490;13.326;2023-10-31T09:43:45;1.20;;;0.90;;
29380;SDS011;16364;52.490;13.326;2023-10-31T09:46:10;2.20;;;0.93;;
29380;SDS011;16364;52.490;13.326;2023-10-31T09:48:35;0.90;;;0.90;;
29380;SDS011;16364;52.490;13.326;2023-10-31T09:51:00;1.10;;;1.00;;
29380;SDS011;16364;52.490;13.326;2023-10-31T09:53:26;3.90;;;1.00;;
29380;SDS011;16364;52.490;13.326;2023-10-31T09:55:52;1.13;;;1.00;;
29380;SDS011;16364;52.490;13.326;2023-10-31T09:58:18;1.13;;;1.07;;
29380;SDS011;16364;52.490;13.326;2023-10-31T10:00:44;1.03;;;0.93;;
29380;SDS011;16364;52.490;13.326;2023-10-31T10:03:09;0.90;;;0.90;;
29380;SDS011;16364;52.490;13.326;2023-10-31T10:05:35;1.20;;;1.10;;
29380;SDS011;16364;52.490;13.326;2023-10-31T10:08:00;2.20;;;1.00;;
29380;SDS011;16364;52.490;13.326;2023-10-31T10:10:25;2.90;;;0.90;;
29380;SDS011;16364;52.490;13.326;2023-10-31T10:12:51;1.80;;;1.00;;
29380;SDS011;16364;52.490;13.326;2023-10-31T10:15:16;2.30;;;1.00;;
29380;SDS011;16364;52.490;13.326;2023-10-31T10:17:47;1.53;;;1.00;;
29380;SDS011;16364;52.490;13.326;2023-10-31T10:20:13;1.30;;;1.20;;
29380;SDS011;16364;52.490;13.326;2023-10-31T10:22:41;1.30;;;1.00;;
29380;SDS011;16364;52.490;13.326;2023-10-31T10:25:08;1.20;;;1.10;;
29380;SDS011;16364;52.490;13.326;2023-10-31T10:27:33;1.27;;;1.17;;
29380;SDS011;16364;52.490;13.326;2023-10-31T10:29:58;1.00;;;0.93;;
29380;SDS011;16364;52.490;13.326;2023-10-31T10:32:24;1.00;;;0.90;;
29380;SDS011;16364;52.490;13.326;2023-10-31T10:34:49;1.93;;;1.30;;
29380;SDS011;16364;52.490;13.326;2023-10-31T10:37:14;1.73;;;1.10;;
29380;SDS011;16364;52.490;13.326;2023-10-31T10:39:42;1.60;;;1.10;;
29380;SDS011;16364;52.490;13.326;2023-10-31T10:42:09;1.20;;;1.10;;
29380;SDS011;16364;52.490;13.326;2023-10-31T10:44:36;1.20;;;1.10;;
29380;SDS011;16364;52.490;13.326;2023-10-31T10:47:04;1.30;;;1.20;;
29380;SDS011;16364;52.490;13.326;2023-10-31T10:49:32;1.40;;;1.30;;
29380;SDS011;16364;52.490;13.326;2023-10-31T10:55:04;1.97;;;1.37;;
29380;SDS011;16364;52.490;13.326;2023-10-31T10:59:48;1.50;;;1.40;;
29380;SDS011;16364;52.490;13.326;2023-10-31T11:02:16;3.63;;;1.20;;
29380;SDS011;16364;52.490;13.326;2023-10-31T11:04:42;1.60;;;1.50;;
29380;SDS011;16364;52.490;13.326;2023-10-31T11:07:08;1.67;;;1.57;;
29380;SDS011;16364;52.490;13.326;2023-10-31T11:09:33;1.33;;;1.23;;
29380;SDS011;16364;52.490;13.326;2023-10-31T11:11:59;1.50;;;1.40;;
29380;SDS011;16364;52.490;13.326;2023-10-31T11:14:25;1.70;;;1.60;;
29380;SDS011;16364;52.490;13.326;2023-10-31T11:16:51;3.10;;;1.40;;
29380;SDS011;16364;52.490;13.326;2023-10-31T11:19:17;1.50;;;1.40;;
29380;SDS011;16364;52.490;13.326;2023-10-31T11:21:58;3.20;;;1.20;;
29380;SDS011;16364;52.490;13.326;2023-10-31T11:24:26;1.80;;;1.23;;
29380;SDS011;16364;52.490;13.326;2023-10-31T11:26:51;1.50;;;1.40;;
29380;SDS011;16364;52.490;13.326;2023-10-31T11:29:17;1.70;;;1.50;;
29380;SDS011;16364;52.490;13.326;2023-10-31T11:31:42;1.37;;;1.27;;
29380;SDS011;16364;52.490;13.326;2023-10-31T11:34:08;3.77;;;1.30;;
29380;SDS011;16364;52.490;13.326;2023-10-31T11:36:33;1.53;;;1.40;;
29380;SDS011;16364;52.490;13.326;2023-10-31T11:39:10;1.80;;;1.37;;
29380;SDS011;16364;52.490;13.326;2023-10-31T11:41:37;1.80;;;1.37;;
29380;SDS011;16364;52.490;13.326;2023-10-31T11:44:02;1.53;;;1.43;;
29380;SDS011;16364;52.490;13.326;2023-10-31T11:46:27;2.23;;;1.40;;
29380;SDS011;16364;52.490;13.326;2023-10-31T11:48:54;1.20;;;1.10;;
29380;SDS011;16364;52.490;13.326;2023-10-31T11:51:22;1.43;;;1.33;;
29380;SDS011;16364;52.490;13.326;2023-10-31T11:53:50;2.30;;;1.27;;
29380;SDS011;16364;52.490;13.326;2023-10-31T11:56:16;1.17;;;1.07;;
29380;SDS011;16364;52.490;13.326;2023-10-31T11:58:41;1.20;;;1.10;;
29380;SDS011;16364;52.490;13.326;2023-10-31T12:01:07;2.43;;;1.30;;
29380;SDS011;16364;52.490;13.326;2023-10-31T12:03:40;2.40;;;1.00;;
29380;SDS011;16364;52.490;13.326;2023-10-31T12:06:06;1.80;;;0.90;;
29380;SDS011;16364;52.490;13.326;2023-10-31T12:08:38;1.00;;;1.00;;
29380;SDS011;16364;52.490;13.326;2023-10-31T12:13:32;1.20;;;0.90;;
29380;SDS011;16364;52.490;13.326;2023-10-31T12:15:57;1.10;;;0.80;;
29380;SDS011;16364;52.490;13.326;2023-10-31T12:18:23;0.90;;;0.90;;
29380;SDS011;16364;52.490;13.326;2023-10-31T12:20:49;1.00;;;1.00;;
29380;SDS011;16364;52.490;13.326;2023-10-31T12:23:14;1.60;;;0.93;;
29380;SDS011;16364;52.490;13.326;2023-10-31T12:25:49;0.83;;;0.83;;
29380;SDS011;16364;52.490;13.326;2023-10-31T12:28:18;1.10;;;0.87;;
29380;SDS011;16364;52.490;13.326;2023-10-31T12:30:47;2.23;;;0.90;;
29380;SDS011;16364;52.490;13.326;2023-10-31T12:33:12;2.53;;;0.80;;
29380;SDS011;16364;52.490;13.326;2023-10-31T12:35:37;0.80;;;0.80;;
29380;SDS011;16364;52.490;13.326;2023-10-31T12:38:03;2.30;;;0.80;;
29380;SDS011;16364;52.490;13.326;2023-10-31T12:40:28;0.70;;;0.70;;
29380;SDS011;16364;52.490;13.326;2023-10-31T12:42:54;0.80;;;0.80;;
29380;SDS011;16364;52.490;13.326;2023-10-31T12:45:19;0.70;;;0.70;;
29380;SDS011;16364;52.490;13.326;2023-10-31T12:47:44;0.87;;;0.70;;
29380;SDS011;16364;52.490;13.326;2023-10-31T12:50:14;0.70;;;0.70;;
29380;SDS011;16364;52.490;13.326;2023-10-31T12:52:53;0.67;;;0.63;;
29380;SDS011;16364;52.490;13.326;2023-10-31T12:55:20;0.60;;;0.60;;
29380;SDS011;16364;52.490;13.326;2023-10-31T12:57:45;0.70;;;0.70;;
29380;SDS011;16364;52.490;13.326;2023-10-31T13:00:11;0.90;;;0.70;;
29380;SDS011;16364;52.490;13.326;2023-10-31T13:02:40;0.80;;;0.60;;
29380;SDS011;16364;52.490;13.326;2023-10-31T13:05:09;2.10;;;0.70;;
29380;SDS011;16364;52.490;13.326;2023-10-31T13:07:35;0.63;;;0.60;;
29380;SDS011;16364;52.490;13.326;2023-10-31T13:10:00;0.70;;;0.70;;
29380;SDS011;16364;52.490;13.326;2023-10-31T13:12:25;0.80;;;0.70;;
29380;SDS011;16364;52.490;13.326;2023-10-31T13:14:52;0.70;;;0.70;;
29380;SDS011;16364;52.490;13.326;2023-10-31T13:17:18;0.73;;;0.60;;
29380;SDS011;16364;52.490;13.326;2023-10-31T13:19:44;4.87;;;2.60;;
29380;SDS011;16364;52.490;13.326;2023-10-31T13:22:09;1.50;;;1.40;;
29380;SDS011;16364;52.490;13.326;2023-10-31T13:24:34;1.30;;;1.17;;
29380;SDS011;16364;52.490;13.326;2023-10-31T13:27:00;3.13;;;0.60;;
29380;SDS011;16364;52.490;13.326;2023-10-31T13:29:27;1.63;;;0.80;;
29380;SDS011;16364;52.490;13.326;2023-10-31T13:31:53;0.80;;;0.80;;
29380;SDS011;16364;52.490;13.326;2023-10-31T13:34:18;0.70;;;0.70;;
29380;SDS011;16364;52.490;13.326;2023-10-31T13:36:43;3.03;;;0.70;;
29380;SDS011;16364;52.490;13.326;2023-10-31T13:39:09;0.70;;;0.70;;
29380;SDS011;16364;52.490;13.326;2023-10-31T13:41:34;0.70;;;0.60;;
29380;SDS011;16364;52.490;13.326;2023-10-31T13:43:59;0.90;;;0.90;;
29380;SDS011;16364;52.490;13.326;2023-10-31T13:46:25;0.90;;;0.70;;
29380;SDS011;16364;52.490;13.326;2023-10-31T13:48:50;0.80;;;0.80;;
29380;SDS011;16364;52.490;13.326;2023-10-31T13:51:15;0.70;;;0.70;;
29380;SDS011;16364;52.490;13.326;2023-10-31T13:53:41;4.30;;;0.90;;
29380;SDS011;16364;52.490;13.326;2023-10-31T13:56:06;0.80;;;0.80;;
29380;SDS011;16364;52.490;13.326;2023-10-31T13:58:31;2.40;;;1.33;;
29380;SDS011;16364;52.490;13.326;2023-10-31T14:00:57;0.70;;;0.70;;
29380;SDS011;16364;52.490;13.326;2023-10-31T14:03:22;0.93;;;0.80;;
29380;SDS011;16364;52.490;13.326;2023-10-31T14:05:47;0.70;;;0.70;;
29380;SDS011;16364;52.490;13.326;2023-10-31T14:08:13;0.70;;;0.70;;
29380;SDS011;16364;52.490;13.326;2023-10-31T14:10:38;0.83;;;0.80;;
29380;SDS011;16364;52.490;13.326;2023-10-31T14:13:04;2.57;;;0.80;;
29380;SDS011;16364;52.490;13.326;2023-10-31T14:15:30;1.73;;;1.10;;
29380;SDS011;16364;52.490;13.326;2023-10-31T14:17:55;1.13;;;0.93;;
29380;SDS011;16364;52.490;13.326;2023-10-31T14:20:20;0.90;;;0.90;;
29380;SDS011;16364;52.490;13.326;2023-10-31T14:22:49;1.03;;;0.60;;
29380;SDS011;16364;52.490;13.326;2023-10-31T14:25:14;1.30;;;0.77;;
29380;SDS011;16364;52.490;13.326;2023-10-31T14:27:40;1.13;;;0.70;;
29380;SDS011;16364;52.490;13.326;2023-10-31T14:30:05;0.70;;;0.70;;
29380;SDS011;16364;52.490;13.326;2023-10-31T14:32:31;0.90;;;0.80;;
29380;SDS011;16364;52.490;13.326;2023-10-31T14:34:57;0.70;;;0.70;;